Terminal Aerodrome Forecast
Issued by NWS

Home | Current Version | Previous Version | Graphics & Text | Print | Product List | Glossary On
Versions: 1 2 3 4 5 6 7 8 9 10 11 12 13 14 15 16 17 18 19 20 21 22 23 24 25 26 27 28 29 30 31
000
FTUS43 KLOT 181956 AAA
TAFORD
TAF AMD
KORD 181956Z 1820/1924 23012G16KT P6SM OVC010
     FM190000 22006KT 5SM BR BKN009
     FM190600 21005KT 2SM BR OVC006
     FM191500 16008KT 6SM BR SCT015 BKN100
     FM192000 10010KT P6SM OVC035=

USA.gov is the U.S. government's official web portal to all federal, state and local government web resources and services.